sensor_id;sensor_type;location;lat;lon;timestamp;temperature;humidity
20400;DHT22;10359;53.596;22.520;2023-04-15T00:01:16;10.60;99.90
20400;DHT22;10359;53.596;22.520;2023-04-15T00:04:06;10.50;99.90
20400;DHT22;10359;53.596;22.520;2023-04-15T00:06:56;10.30;99.90
20400;DHT22;10359;53.596;22.520;2023-04-15T00:09:47;10.10;99.90
20400;DHT22;10359;53.596;22.520;2023-04-15T00:12:37;10.00;99.90
20400;DHT22;10359;53.596;22.520;2023-04-15T00:15:26;10.00;99.90
20400;DHT22;10359;53.596;22.520;2023-04-15T00:18:16;9.90;99.90
20400;DHT22;10359;53.596;22.520;2023-04-15T00:21:05;9.90;99.90
20400;DHT22;10359;53.596;22.520;2023-04-15T00:23:56;9.90;99.90
20400;DHT22;10359;53.596;22.520;2023-04-15T00:26:46;10.00;99.90
20400;DHT22;10359;53.596;22.520;2023-04-15T00:29:37;10.00;99.90
20400;DHT22;10359;53.596;22.520;2023-04-15T00:32:26;10.30;99.90
20400;DHT22;10359;53.596;22.520;2023-04-15T00:35:16;10.30;99.90
20400;DHT22;10359;53.596;22.520;2023-04-15T00:38:06;10.40;99.90
20400;DHT22;10359;53.596;22.520;2023-04-15T00:40:56;10.50;99.90
20400;DHT22;10359;53.596;22.520;2023-04-15T00:43:47;10.50;99.90
20400;DHT22;10359;53.596;22.520;2023-04-15T00:46:37;10.60;99.90
20400;DHT22;10359;53.596;22.520;2023-04-15T00:49:27;10.60;99.90
20400;DHT22;10359;53.596;22.520;2023-04-15T00:52:18;10.60;99.90
20400;DHT22;10359;53.596;22.520;2023-04-15T00:55:08;10.60;99.90
20400;DHT22;10359;53.596;22.520;2023-04-15T00:57:58;10.70;99.90
20400;DHT22;10359;53.596;22.520;2023-04-15T01:00:49;10.70;99.90
20400;DHT22;10359;53.596;22.520;2023-04-15T01:03:41;10.70;99.90
20400;DHT22;10359;53.596;22.520;2023-04-15T01:06:30;10.70;99.90
20400;DHT22;10359;53.596;22.520;2023-04-15T01:09:20;10.70;99.90
20400;DHT22;10359;53.596;22.520;2023-04-15T01:12:14;10.70;99.90
20400;DHT22;10359;53.596;22.520;2023-04-15T01:15:08;10.60;99.90
20400;DHT22;10359;53.596;22.520;2023-04-15T01:18:00;10.60;99.90
20400;DHT22;10359;53.596;22.520;2023-04-15T01:20:50;10.60;99.90
20400;DHT22;10359;53.596;22.520;2023-04-15T01:23:40;10.60;99.90
20400;DHT22;10359;53.596;22.520;2023-04-15T01:26:31;10.60;99.90
20400;DHT22;10359;53.596;22.520;2023-04-15T01:29:21;10.60;99.90
20400;DHT22;10359;53.596;22.520;2023-04-15T01:32:11;10.60;99.90
20400;DHT22;10359;53.596;22.520;2023-04-15T01:35:01;10.60;99.90
20400;DHT22;10359;53.596;22.520;2023-04-15T01:37:50;10.60;99.90
20400;DHT22;10359;53.596;22.520;2023-04-15T01:40:41;10.60;99.90
20400;DHT22;10359;53.596;22.520;2023-04-15T01:43:32;10.60;99.90
20400;DHT22;10359;53.596;22.520;2023-04-15T01:46:22;10.50;99.90
20400;DHT22;10359;53.596;22.520;2023-04-15T01:49:12;10.50;99.90
20400;DHT22;10359;53.596;22.520;2023-04-15T01:52:01;10.50;99.90
20400;DHT22;10359;53.596;22.520;2023-04-15T01:54:51;10.50;99.90
20400;DHT22;10359;53.596;22.520;2023-04-15T01:57:40;10.40;99.90
20400;DHT22;10359;53.596;22.520;2023-04-15T02:00:31;10.50;99.90
20400;DHT22;10359;53.596;22.520;2023-04-15T02:03:21;10.50;99.90
20400;DHT22;10359;53.596;22.520;2023-04-15T02:06:11;10.60;99.90
20400;DHT22;10359;53.596;22.520;2023-04-15T02:09:00;10.50;99.90
20400;DHT22;10359;53.596;22.520;2023-04-15T02:11:58;10.60;99.90
20400;DHT22;10359;53.596;22.520;2023-04-15T02:14:58;10.50;99.90
20400;DHT22;10359;53.596;22.520;2023-04-15T02:17:49;10.50;99.90
20400;DHT22;10359;53.596;22.520;2023-04-15T02:20:40;10.50;99.90
20400;DHT22;10359;53.596;22.520;2023-04-15T02:23:32;10.40;99.90
20400;DHT22;10359;53.596;22.520;2023-04-15T02:26:22;10.50;99.90
20400;DHT22;10359;53.596;22.520;2023-04-15T02:29:12;10.50;99.90
20400;DHT22;10359;53.596;22.520;2023-04-15T02:32:10;10.50;99.90
20400;DHT22;10359;53.596;22.520;2023-04-15T02:35:03;10.40;99.90
20400;DHT22;10359;53.596;22.520;2023-04-15T02:37:53;10.40;99.90
20400;DHT22;10359;53.596;22.520;2023-04-15T02:40:43;10.40;99.90
20400;DHT22;10359;53.596;22.520;2023-04-15T02:43:33;10.40;99.90
20400;DHT22;10359;53.596;22.520;2023-04-15T02:46:23;10.40;99.90
20400;DHT22;10359;53.596;22.520;2023-04-15T02:49:14;10.40;99.90
20400;DHT22;10359;53.596;22.520;2023-04-15T02:52:05;10.40;99.90
20400;DHT22;10359;53.596;22.520;2023-04-15T02:55:00;10.40;99.90
20400;DHT22;10359;53.596;22.520;2023-04-15T02:57:53;10.30;99.90
20400;DHT22;10359;53.596;22.520;2023-04-15T03:00:46;10.30;99.90
20400;DHT22;10359;53.596;22.520;2023-04-15T03:03:44;10.30;99.90
20400;DHT22;10359;53.596;22.520;2023-04-15T03:06:34;10.40;99.90
20400;DHT22;10359;53.596;22.520;2023-04-15T03:09:25;10.40;99.90
20400;DHT22;10359;53.596;22.520;2023-04-15T03:12:15;10.40;99.90
20400;DHT22;10359;53.596;22.520;2023-04-15T03:15:08;10.40;99.90
20400;DHT22;10359;53.596;22.520;2023-04-15T03:17:58;10.40;99.90
20400;DHT22;10359;53.596;22.520;2023-04-15T03:20:48;10.50;99.90
20400;DHT22;10359;53.596;22.520;2023-04-15T03:23:38;10.40;99.90
20400;DHT22;10359;53.596;22.520;2023-04-15T03:26:32;10.40;99.90
20400;DHT22;10359;53.596;22.520;2023-04-15T03:29:24;10.40;99.90
20400;DHT22;10359;53.596;22.520;2023-04-15T03:32:13;10.40;99.90
20400;DHT22;10359;53.596;22.520;2023-04-15T03:35:04;10.40;99.90
20400;DHT22;10359;53.596;22.520;2023-04-15T03:37:54;10.40;99.90
20400;DHT22;10359;53.596;22.520;2023-04-15T03:40:47;10.40;99.90
20400;DHT22;10359;53.596;22.520;2023-04-15T03:43:40;10.40;99.90
20400;DHT22;10359;53.596;22.520;2023-04-15T03:46:30;10.50;99.90
20400;DHT22;10359;53.596;22.520;2023-04-15T03:49:20;10.40;99.90
20400;DHT22;10359;53.596;22.520;2023-04-15T03:52:11;10.40;99.90
20400;DHT22;10359;53.596;22.520;2023-04-15T03:55:01;10.50;99.90
20400;DHT22;10359;53.596;22.520;2023-04-15T03:57:56;10.40;99.90
20400;DHT22;10359;53.596;22.520;2023-04-15T04:00:48;10.30;99.90
20400;DHT22;10359;53.596;22.520;2023-04-15T04:03:38;10.30;99.90
20400;DHT22;10359;53.596;22.520;2023-04-15T04:06:35;10.30;99.90
20400;DHT22;10359;53.596;22.520;2023-04-15T04:09:25;10.30;99.90
20400;DHT22;10359;53.596;22.520;2023-04-15T04:12:18;10.30;99.90
20400;DHT22;10359;53.596;22.520;2023-04-15T04:15:17;10.30;99.90
20400;DHT22;10359;53.596;22.520;2023-04-15T04:18:08;10.30;99.90
20400;DHT22;10359;53.596;22.520;2023-04-15T04:20:58;10.30;99.90
20400;DHT22;10359;53.596;22.520;2023-04-15T04:23:51;10.20;99.90
20400;DHT22;10359;53.596;22.520;2023-04-15T04:26:40;10.30;99.90
20400;DHT22;10359;53.596;22.520;2023-04-15T04:29:38;10.30;99.90
20400;DHT22;10359;53.596;22.520;2023-04-15T04:32:28;10.30;99.90
20400;DHT22;10359;53.596;22.520;2023-04-15T04:35:20;10.40;99.90
20400;DHT22;10359;53.596;22.520;2023-04-15T04:38:09;10.40;99.90
20400;DHT22;10359;53.596;22.520;2023-04-15T04:41:07;10.20;99.90
20400;DHT22;10359;53.596;22.520;2023-04-15T04:44:00;10.20;99.90
20400;DHT22;10359;53.596;22.520;2023-04-15T04:46:50;10.30;99.90
20400;DHT22;10359;53.596;22.520;2023-04-15T04:49:42;10.20;99.90
20400;DHT22;10359;53.596;22.520;2023-04-15T04:52:36;10.20;99.90
20400;DHT22;10359;53.596;22.520;2023-04-15T04:55:26;10.30;99.90
20400;DHT22;10359;53.596;22.520;2023-04-15T04:58:18;10.30;99.90
20400;DHT22;10359;53.596;22.520;2023-04-15T05:01:08;10.30;99.90
20400;DHT22;10359;53.596;22.520;2023-04-15T05:04:01;10.20;99.90
20400;DHT22;10359;53.596;22.520;2023-04-15T05:06:55;10.20;99.90
20400;DHT22;10359;53.596;22.520;2023-04-15T05:09:48;10.10;99.90
20400;DHT22;10359;53.596;22.520;2023-04-15T05:12:38;10.00;99.90
20400;DHT22;10359;53.596;22.520;2023-04-15T05:15:34;10.00;99.90
20400;DHT22;10359;53.596;22.520;2023-04-15T05:18:25;10.00;99.90
20400;DHT22;10359;53.596;22.520;2023-04-15T05:21:16;10.00;99.90
20400;DHT22;10359;53.596;22.520;2023-04-15T05:24:07;9.90;99.90
20400;DHT22;10359;53.596;22.520;2023-04-15T05:26:59;10.00;99.90
20400;DHT22;10359;53.596;22.520;2023-04-15T05:29:55;9.90;99.90
20400;DHT22;10359;53.596;22.520;2023-04-15T05:32:47;9.90;99.90
20400;DHT22;10359;53.596;22.520;2023-04-15T05:35:37;10.00;99.90
20400;DHT22;10359;53.596;22.520;2023-04-15T05:38:26;9.90;99.90
20400;DHT22;10359;53.596;22.520;2023-04-15T05:41:16;9.90;99.90
20400;DHT22;10359;53.596;22.520;2023-04-15T05:44:08;9.90;99.90
20400;DHT22;10359;53.596;22.520;2023-04-15T05:46:58;10.00;99.90
20400;DHT22;10359;53.596;22.520;2023-04-15T05:49:48;10.10;99.90
20400;DHT22;10359;53.596;22.520;2023-04-15T05:52:39;10.10;99.90
20400;DHT22;10359;53.596;22.520;2023-04-15T05:55:29;10.20;99.90
20400;DHT22;10359;53.596;22.520;2023-04-15T05:58:19;10.20;99.90
20400;DHT22;10359;53.596;22.520;2023-04-15T06:01:14;10.40;99.90
20400;DHT22;10359;53.596;22.520;2023-04-15T06:04:04;10.40;99.90
20400;DHT22;10359;53.596;22.520;2023-04-15T06:06:54;10.40;99.90
20400;DHT22;10359;53.596;22.520;2023-04-15T06:09:44;10.30;99.90
20400;DHT22;10359;53.596;22.520;2023-04-15T06:12:34;10.20;99.90
20400;DHT22;10359;53.596;22.520;2023-04-15T06:15:24;10.10;1.00
20400;DHT22;10359;53.596;22.520;2023-04-15T06:18:21;10.00;99.90
20400;DHT22;10359;53.596;22.520;2023-04-15T06:21:12;10.20;99.90
20400;DHT22;10359;53.596;22.520;2023-04-15T06:24:59;10.40;99.90
20400;DHT22;10359;53.596;22.520;2023-04-15T06:28:28;10.40;99.90
20400;DHT22;10359;53.596;22.520;2023-04-15T06:31:40;10.40;99.90
20400;DHT22;10359;53.596;22.520;2023-04-15T06:34:54;10.50;99.90
20400;DHT22;10359;53.596;22.520;2023-04-15T06:37:56;10.40;99.90
20400;DHT22;10359;53.596;22.520;2023-04-15T06:41:08;10.40;99.90
20400;DHT22;10359;53.596;22.520;2023-04-15T06:44:29;10.50;99.90
20400;DHT22;10359;53.596;22.520;2023-04-15T06:47:35;10.50;99.90
20400;DHT22;10359;53.596;22.520;2023-04-15T07:21:18;10.80;99.90
20400;DHT22;10359;53.596;22.520;2023-04-15T07:25:12;10.90;99.90
20400;DHT22;10359;53.596;22.520;2023-04-15T07:32:12;10.80;99.90
20400;DHT22;10359;53.596;22.520;2023-04-15T07:39:43;11.10;99.90
20400;DHT22;10359;53.596;22.520;2023-04-15T07:43:06;11.20;99.90
20400;DHT22;10359;53.596;22.520;2023-04-15T07:46:37;11.30;99.90
20400;DHT22;10359;53.596;22.520;2023-04-15T07:49:27;11.50;99.90
20400;DHT22;10359;53.596;22.520;2023-04-15T07:52:46;11.70;99.90
20400;DHT22;10359;53.596;22.520;2023-04-15T07:56:43;11.60;99.90
20400;DHT22;10359;53.596;22.520;2023-04-15T07:59:55;11.70;99.90
20400;DHT22;10359;53.596;22.520;2023-04-15T08:02:53;11.70;99.90
20400;DHT22;10359;53.596;22.520;2023-04-15T08:09:52;11.50;99.90
20400;DHT22;10359;53.596;22.520;2023-04-15T08:13:14;11.50;99.90
20400;DHT22;10359;53.596;22.520;2023-04-15T08:16:40;11.70;99.90
20400;DHT22;10359;53.596;22.520;2023-04-15T08:19:43;11.90;99.90
20400;DHT22;10359;53.596;22.520;2023-04-15T08:22:50;11.80;99.90
20400;DHT22;10359;53.596;22.520;2023-04-15T08:33:23;11.70;99.90
20400;DHT22;10359;53.596;22.520;2023-04-15T08:36:36;11.90;99.90
20400;DHT22;10359;53.596;22.520;2023-04-15T08:40:09;12.00;99.90
20400;DHT22;10359;53.596;22.520;2023-04-15T08:43:08;11.90;99.90
20400;DHT22;10359;53.596;22.520;2023-04-15T08:46:10;12.10;99.90
20400;DHT22;10359;53.596;22.520;2023-04-15T08:49:38;12.40;99.90
20400;DHT22;10359;53.596;22.520;2023-04-15T08:52:47;12.70;99.90
20400;DHT22;10359;53.596;22.520;2023-04-15T08:56:43;12.70;99.90
20400;DHT22;10359;53.596;22.520;2023-04-15T08:59:23;12.30;99.90
20400;DHT22;10359;53.596;22.520;2023-04-15T09:02:19;12.50;99.90
20400;DHT22;10359;53.596;22.520;2023-04-15T09:05:34;12.50;99.90
20400;DHT22;10359;53.596;22.520;2023-04-15T09:08:35;12.40;99.90
20400;DHT22;10359;53.596;22.520;2023-04-15T09:12:08;12.50;99.90
20400;DHT22;10359;53.596;22.520;2023-04-15T09:15:10;12.50;99.90
20400;DHT22;10359;53.596;22.520;2023-04-15T09:18:05;12.60;99.90
20400;DHT22;10359;53.596;22.520;2023-04-15T09:21:02;12.40;99.90
20400;DHT22;10359;53.596;22.520;2023-04-15T09:24:08;12.30;99.90
20400;DHT22;10359;53.596;22.520;2023-04-15T09:27:48;12.20;99.90
20400;DHT22;10359;53.596;22.520;2023-04-15T09:31:30;12.30;99.90
20400;DHT22;10359;53.596;22.520;2023-04-15T09:35:25;12.10;99.90
20400;DHT22;10359;53.596;22.520;2023-04-15T09:42:56;12.10;99.90
20400;DHT22;10359;53.596;22.520;2023-04-15T09:46:18;12.10;99.90
20400;DHT22;10359;53.596;22.520;2023-04-15T09:49:57;12.20;99.90
20400;DHT22;10359;53.596;22.520;2023-04-15T09:53:16;12.00;99.90
20400;DHT22;10359;53.596;22.520;2023-04-15T10:03:42;12.20;99.90
20400;DHT22;10359;53.596;22.520;2023-04-15T10:06:54;12.30;99.90
20400;DHT22;10359;53.596;22.520;2023-04-15T10:10:06;12.40;99.90
20400;DHT22;10359;53.596;22.520;2023-04-15T10:13:28;12.30;99.90
20400;DHT22;10359;53.596;22.520;2023-04-15T10:16:58;12.30;99.90
20400;DHT22;10359;53.596;22.520;2023-04-15T10:20:03;12.10;99.90
20400;DHT22;10359;53.596;22.520;2023-04-15T10:23:24;12.10;99.90
20400;DHT22;10359;53.596;22.520;2023-04-15T10:26:20;11.90;99.90
20400;DHT22;10359;53.596;22.520;2023-04-15T10:29:15;12.10;99.90
20400;DHT22;10359;53.596;22.520;2023-04-15T10:32:33;12.20;99.90
20400;DHT22;10359;53.596;22.520;2023-04-15T10:35:40;11.90;99.90
20400;DHT22;10359;53.596;22.520;2023-04-15T10:38:51;11.90;99.90
20400;DHT22;10359;53.596;22.520;2023-04-15T10:42:10;11.90;99.90
20400;DHT22;10359;53.596;22.520;2023-04-15T10:45:17;12.10;99.90
20400;DHT22;10359;53.596;22.520;2023-04-15T10:48:15;12.40;99.90
20400;DHT22;10359;53.596;22.520;2023-04-15T10:51:30;12.70;99.90
20400;DHT22;10359;53.596;22.520;2023-04-15T10:54:56;12.50;99.90
20400;DHT22;10359;53.596;22.520;2023-04-15T10:58:03;12.40;99.90
20400;DHT22;10359;53.596;22.520;2023-04-15T11:01:01;12.30;99.90
20400;DHT22;10359;53.596;22.520;2023-04-15T11:03:59;12.50;99.90
20400;DHT22;10359;53.596;22.520;2023-04-15T11:07:22;12.60;99.90
20400;DHT22;10359;53.596;22.520;2023-04-15T11:14:14;12.50;99.90
20400;DHT22;10359;53.596;22.520;2023-04-15T11:17:06;12.70;99.90
20400;DHT22;10359;53.596;22.520;2023-04-15T11:19:59;12.40;99.90
20400;DHT22;10359;53.596;22.520;2023-04-15T11:23:00;12.50;99.90
20400;DHT22;10359;53.596;22.520;2023-04-15T11:26:05;12.40;99.90
20400;DHT22;10359;53.596;22.520;2023-04-15T11:28:59;12.60;99.90
20400;DHT22;10359;53.596;22.520;2023-04-15T11:31:51;12.60;99.90
20400;DHT22;10359;53.596;22.520;2023-04-15T11:34:47;12.60;99.90
20400;DHT22;10359;53.596;22.520;2023-04-15T11:37:37;12.70;99.90
20400;DHT22;10359;53.596;22.520;2023-04-15T11:40:34;12.70;99.90
20400;DHT22;10359;53.596;22.520;2023-04-15T11:47:23;13.00;99.90
20400;DHT22;10359;53.596;22.520;2023-04-15T11:50:17;12.70;99.90
20400;DHT22;10359;53.596;22.520;2023-04-15T11:53:14;12.90;99.90
20400;DHT22;10359;53.596;22.520;2023-04-15T11:56:15;12.90;99.90
20400;DHT22;10359;53.596;22.520;2023-04-15T11:59:10;13.10;99.90
20400;DHT22;10359;53.596;22.520;2023-04-15T12:02:17;13.20;99.90
20400;DHT22;10359;53.596;22.520;2023-04-15T12:05:30;13.00;99.90
20400;DHT22;10359;53.596;22.520;2023-04-15T12:08:55;13.10;99.90
20400;DHT22;10359;53.596;22.520;2023-04-15T12:12:13;12.70;99.90
20400;DHT22;10359;53.596;22.520;2023-04-15T12:16:03;12.70;99.90
20400;DHT22;10359;53.596;22.520;2023-04-15T12:19:54;12.60;99.90
20400;DHT22;10359;53.596;22.520;2023-04-15T12:23:02;12.70;99.90
20400;DHT22;10359;53.596;22.520;2023-04-15T12:26:33;12.80;99.90
20400;DHT22;10359;53.596;22.520;2023-04-15T12:30:03;12.80;99.90
20400;DHT22;10359;53.596;22.520;2023-04-15T12:33:19;12.70;99.90
20400;DHT22;10359;53.596;22.520;2023-04-15T12:36:35;13.00;99.90
20400;DHT22;10359;53.596;22.520;2023-04-15T12:39:40;12.90;99.90
20400;DHT22;10359;53.596;22.520;2023-04-15T12:43:11;12.80;99.90
20400;DHT22;10359;53.596;22.520;2023-04-15T12:46:21;12.60;99.90
20400;DHT22;10359;53.596;22.520;2023-04-15T12:49:13;12.60;99.90
20400;DHT22;10359;53.596;22.520;2023-04-15T12:52:47;12.50;99.90
20400;DHT22;10359;53.596;22.520;2023-04-15T12:56:20;12.30;99.90
20400;DHT22;10359;53.596;22.520;2023-04-15T13:00:00;12.30;99.90
20400;DHT22;10359;53.596;22.520;2023-04-15T13:03:02;12.20;99.90
20400;DHT22;10359;53.596;22.520;2023-04-15T13:06:00;12.20;99.90
20400;DHT22;10359;53.596;22.520;2023-04-15T13:09:21;12.30;99.90
20400;DHT22;10359;53.596;22.520;2023-04-15T13:12:26;12.30;99.90
20400;DHT22;10359;53.596;22.520;2023-04-15T13:15:35;12.70;99.90
20400;DHT22;10359;53.596;22.520;2023-04-15T13:18:45;12.90;99.90
20400;DHT22;10359;53.596;22.520;2023-04-15T13:21:48;13.00;99.90
20400;DHT22;10359;53.596;22.520;2023-04-15T13:24:52;12.70;99.90
20400;DHT22;10359;53.596;22.520;2023-04-15T13:28:02;12.70;99.90
20400;DHT22;10359;53.596;22.520;2023-04-15T13:30:56;12.40;99.90
20400;DHT22;10359;53.596;22.520;2023-04-15T13:33:51;12.00;99.90
20400;DHT22;10359;53.596;22.520;2023-04-15T13:36:46;11.60;99.90
20400;DHT22;10359;53.596;22.520;2023-04-15T13:39:39;11.50;99.90
20400;DHT22;10359;53.596;22.520;2023-04-15T13:42:40;11.70;99.90
20400;DHT22;10359;53.596;22.520;2023-04-15T13:45:59;11.60;99.90
20400;DHT22;10359;53.596;22.520;2023-04-15T13:48:57;11.60;99.90
20400;DHT22;10359;53.596;22.520;2023-04-15T13:51:58;11.50;99.90
20400;DHT22;10359;53.596;22.520;2023-04-15T13:54:57;11.50;99.90
20400;DHT22;10359;53.596;22.520;2023-04-15T13:58:07;11.20;99.90
20400;DHT22;10359;53.596;22.520;2023-04-15T14:01:04;11.00;99.90
20400;DHT22;10359;53.596;22.520;2023-04-15T14:03:54;11.20;99.90
20400;DHT22;10359;53.596;22.520;2023-04-15T14:06:49;11.30;99.90
20400;DHT22;10359;53.596;22.520;2023-04-15T14:09:41;11.20;99.90
20400;DHT22;10359;53.596;22.520;2023-04-15T14:12:35;11.10;99.90
20400;DHT22;10359;53.596;22.520;2023-04-15T14:15:26;11.00;99.90
20400;DHT22;10359;53.596;22.520;2023-04-15T14:18:20;10.90;99.90
20400;DHT22;10359;53.596;22.520;2023-04-15T14:21:12;10.90;99.90
20400;DHT22;10359;53.596;22.520;2023-04-15T14:24:02;10.60;99.90
20400;DHT22;10359;53.596;22.520;2023-04-15T14:26:53;10.70;99.90
20400;DHT22;10359;53.596;22.520;2023-04-15T14:29:43;10.60;99.90
20400;DHT22;10359;53.596;22.520;2023-04-15T14:32:34;10.60;99.90
20400;DHT22;10359;53.596;22.520;2023-04-15T14:38:51;10.50;99.90
20400;DHT22;10359;53.596;22.520;2023-04-15T14:41:41;10.50;99.90
20400;DHT22;10359;53.596;22.520;2023-04-15T14:44:31;10.50;99.90
20400;DHT22;10359;53.596;22.520;2023-04-15T14:47:22;10.50;99.90
20400;DHT22;10359;53.596;22.520;2023-04-15T14:50:20;10.40;99.90
20400;DHT22;10359;53.596;22.520;2023-04-15T14:53:14;10.40;99.90
20400;DHT22;10359;53.596;22.520;2023-04-15T14:56:06;10.30;99.90
20400;DHT22;10359;53.596;22.520;2023-04-15T14:58:56;10.30;99.90
20400;DHT22;10359;53.596;22.520;2023-04-15T15:01:46;10.40;99.90
20400;DHT22;10359;53.596;22.520;2023-04-15T15:04:40;10.30;99.90
20400;DHT22;10359;53.596;22.520;2023-04-15T15:07:31;10.30;99.90
20400;DHT22;10359;53.596;22.520;2023-04-15T15:10:25;10.20;99.90
20400;DHT22;10359;53.596;22.520;2023-04-15T15:13:37;10.20;99.90
20400;DHT22;10359;53.596;22.520;2023-04-15T15:16:27;10.20;99.90
20400;DHT22;10359;53.596;22.520;2023-04-15T15:19:20;10.30;99.90
20400;DHT22;10359;53.596;22.520;2023-04-15T15:22:11;10.10;99.90
20400;DHT22;10359;53.596;22.520;2023-04-15T15:25:02;10.10;99.90
20400;DHT22;10359;53.596;22.520;2023-04-15T15:27:52;10.10;99.90
20400;DHT22;10359;53.596;22.520;2023-04-15T15:30:46;10.10;99.90
20400;DHT22;10359;53.596;22.520;2023-04-15T15:33:36;10.10;99.90
20400;DHT22;10359;53.596;22.520;2023-04-15T15:36:26;9.90;99.90
20400;DHT22;10359;53.596;22.520;2023-04-15T15:39:19;9.70;99.90
20400;DHT22;10359;53.596;22.520;2023-04-15T15:42:10;9.60;99.90
20400;DHT22;10359;53.596;22.520;2023-04-15T15:45:03;9.50;99.90
20400;DHT22;10359;53.596;22.520;2023-04-15T15:47:55;9.50;1.00
20400;DHT22;10359;53.596;22.520;2023-04-15T15:50:49;9.60;1.00
20400;DHT22;10359;53.596;22.520;2023-04-15T15:54:05;9.50;1.00
20400;DHT22;10359;53.596;22.520;2023-04-15T15:57:45;9.60;1.00
20400;DHT22;10359;53.596;22.520;2023-04-15T16:08:39;9.60;99.90
20400;DHT22;10359;53.596;22.520;2023-04-15T16:12:27;9.50;1.00
20400;DHT22;10359;53.596;22.520;2023-04-15T16:15:39;9.60;1.00
20400;DHT22;10359;53.596;22.520;2023-04-15T16:18:29;9.60;1.00
20400;DHT22;10359;53.596;22.520;2023-04-15T16:21:21;9.60;1.00
20400;DHT22;10359;53.596;22.520;2023-04-15T16:24:11;9.50;1.00
20400;DHT22;10359;53.596;22.520;2023-04-15T16:27:02;9.40;1.00
20400;DHT22;10359;53.596;22.520;2023-04-15T16:29:51;9.40;1.00
20400;DHT22;10359;53.596;22.520;2023-04-15T16:32:42;9.40;1.00
20400;DHT22;10359;53.596;22.520;2023-04-15T16:35:32;9.40;1.00
20400;DHT22;10359;53.596;22.520;2023-04-15T16:38:22;9.20;1.00
20400;DHT22;10359;53.596;22.520;2023-04-15T16:41:12;9.20;1.00
20400;DHT22;10359;53.596;22.520;2023-04-15T16:44:03;9.30;1.00
20400;DHT22;10359;53.596;22.520;2023-04-15T16:46:55;9.30;1.00
20400;DHT22;10359;53.596;22.520;2023-04-15T16:49:47;9.20;1.00
20400;DHT22;10359;53.596;22.520;2023-04-15T16:52:37;9.10;1.00
20400;DHT22;10359;53.596;22.520;2023-04-15T16:55:27;9.00;1.00
20400;DHT22;10359;53.596;22.520;2023-04-15T16:58:20;9.00;1.00
20400;DHT22;10359;53.596;22.520;2023-04-15T17:01:10;9.10;1.00
20400;DHT22;10359;53.596;22.520;2023-04-15T17:04:00;8.90;1.00
20400;DHT22;10359;53.596;22.520;2023-04-15T17:06:52;8.90;1.00
20400;DHT22;10359;53.596;22.520;2023-04-15T17:09:41;8.80;1.00
20400;DHT22;10359;53.596;22.520;2023-04-15T17:12:31;8.90;1.00
20400;DHT22;10359;53.596;22.520;2023-04-15T17:15:20;8.80;1.00
20400;DHT22;10359;53.596;22.520;2023-04-15T17:18:11;8.70;1.00
20400;DHT22;10359;53.596;22.520;2023-04-15T17:21:01;8.60;1.00
20400;DHT22;10359;53.596;22.520;2023-04-15T17:23:54;8.50;1.00
20400;DHT22;10359;53.596;22.520;2023-04-15T17:26:43;8.50;1.00
20400;DHT22;10359;53.596;22.520;2023-04-15T17:29:34;8.60;1.00
20400;DHT22;10359;53.596;22.520;2023-04-15T17:32:24;8.70;1.00
20400;DHT22;10359;53.596;22.520;2023-04-15T17:35:18;8.70;1.00
20400;DHT22;10359;53.596;22.520;2023-04-15T17:38:10;8.70;1.00
20400;DHT22;10359;53.596;22.520;2023-04-15T17:41:01;8.60;1.00
20400;DHT22;10359;53.596;22.520;2023-04-15T17:43:52;8.70;1.00
20400;DHT22;10359;53.596;22.520;2023-04-15T17:46:42;8.70;1.00
20400;DHT22;10359;53.596;22.520;2023-04-15T17:49:35;8.60;1.00
20400;DHT22;10359;53.596;22.520;2023-04-15T17:52:26;8.60;1.00
20400;DHT22;10359;53.596;22.520;2023-04-15T17:55:16;8.70;1.00
20400;DHT22;10359;53.596;22.520;2023-04-15T17:58:08;8.70;1.00
20400;DHT22;10359;53.596;22.520;2023-04-15T18:00:59;8.70;1.00
20400;DHT22;10359;53.596;22.520;2023-04-15T18:03:50;8.70;1.00
20400;DHT22;10359;53.596;22.520;2023-04-15T18:06:40;8.70;1.00
20400;DHT22;10359;53.596;22.520;2023-04-15T18:09:31;8.70;1.00
20400;DHT22;10359;53.596;22.520;2023-04-15T18:12:24;8.70;1.00
20400;DHT22;10359;53.596;22.520;2023-04-15T18:15:17;8.70;1.00
20400;DHT22;10359;53.596;22.520;2023-04-15T18:18:07;8.60;1.00
20400;DHT22;10359;53.596;22.520;2023-04-15T18:20:57;8.50;1.00
20400;DHT22;10359;53.596;22.520;2023-04-15T18:23:49;8.50;1.00
20400;DHT22;10359;53.596;22.520;2023-04-15T18:26:40;8.50;1.00
20400;DHT22;10359;53.596;22.520;2023-04-15T18:29:31;8.50;1.00
20400;DHT22;10359;53.596;22.520;2023-04-15T18:32:23;8.50;1.00
20400;DHT22;10359;53.596;22.520;2023-04-15T18:35:20;8.40;1.00
20400;DHT22;10359;53.596;22.520;2023-04-15T18:38:13;8.40;1.00
20400;DHT22;10359;53.596;22.520;2023-04-15T18:41:04;8.30;1.00
20400;DHT22;10359;53.596;22.520;2023-04-15T18:43:57;8.30;1.00
20400;DHT22;10359;53.596;22.520;2023-04-15T18:46:48;8.20;1.00
20400;DHT22;10359;53.596;22.520;2023-04-15T18:49:40;8.20;1.00
20400;DHT22;10359;53.596;22.520;2023-04-15T18:52:31;8.20;1.00
20400;DHT22;10359;53.596;22.520;2023-04-15T18:55:23;8.20;1.00
20400;DHT22;10359;53.596;22.520;2023-04-15T18:58:12;8.30;1.00
20400;DHT22;10359;53.596;22.520;2023-04-15T19:01:03;8.40;1.00
20400;DHT22;10359;53.596;22.520;2023-04-15T19:03:53;8.30;1.00
20400;DHT22;10359;53.596;22.520;2023-04-15T19:06:45;8.30;1.00
20400;DHT22;10359;53.596;22.520;2023-04-15T19:09:36;8.30;1.00
20400;DHT22;10359;53.596;22.520;2023-04-15T19:12:31;8.30;1.00
20400;DHT22;10359;53.596;22.520;2023-04-15T19:15:21;8.30;1.00
20400;DHT22;10359;53.596;22.520;2023-04-15T19:18:14;8.20;1.00
20400;DHT22;10359;53.596;22.520;2023-04-15T19:21:04;8.20;1.00
20400;DHT22;10359;53.596;22.520;2023-04-15T19:23:57;8.10;1.00
20400;DHT22;10359;53.596;22.520;2023-04-15T19:26:49;8.10;1.00
20400;DHT22;10359;53.596;22.520;2023-04-15T19:29:39;8.00;1.00
20400;DHT22;10359;53.596;22.520;2023-04-15T19:32:31;8.10;1.00
20400;DHT22;10359;53.596;22.520;2023-04-15T19:35:22;8.20;1.00
20400;DHT22;10359;53.596;22.520;2023-04-15T19:38:21;8.10;1.00
20400;DHT22;10359;53.596;22.520;2023-04-15T19:41:13;8.20;1.00
20400;DHT22;10359;53.596;22.520;2023-04-15T19:44:03;8.10;1.00
20400;DHT22;10359;53.596;22.520;2023-04-15T19:46:54;8.00;1.00
20400;DHT22;10359;53.596;22.520;2023-04-15T19:49:46;8.00;1.00
20400;DHT22;10359;53.596;22.520;2023-04-15T19:52:39;8.10;1.00
20400;DHT22;10359;53.596;22.520;2023-04-15T19:55:30;8.00;1.00
20400;DHT22;10359;53.596;22.520;2023-04-15T19:58:22;7.90;1.00